sensor_id;sensor_type;location;lat;lon;timestamp;P1;durP1;ratioP1;P2;durP2;ratioP2
5125;SDS011;63008;53.112;8.896;2023-07-13T00:01:53;9.23;;;4.83;;
5125;SDS011;63008;53.112;8.896;2023-07-13T00:03:56;5.13;;;4.67;;
5125;SDS011;63008;53.112;8.896;2023-07-13T00:05:58;10.37;;;5.10;;
5125;SDS011;63008;53.112;8.896;2023-07-13T00:08:00;7.00;;;4.47;;
5125;SDS011;63008;53.112;8.896;2023-07-13T00:10:01;9.03;;;5.47;;
5125;SDS011;63008;53.112;8.896;2023-07-13T00:12:03;4.73;;;4.33;;
5125;SDS011;63008;53.112;8.896;2023-07-13T00:14:04;6.17;;;5.00;;
5125;SDS011;63008;53.112;8.896;2023-07-13T00:16:06;5.90;;;4.97;;
5125;SDS011;63008;53.112;8.896;2023-07-13T00:18:08;11.90;;;5.13;;
5125;SDS011;63008;53.112;8.896;2023-07-13T00:20:09;9.10;;;4.43;;
5125;SDS011;63008;53.112;8.896;2023-07-13T00:22:11;6.37;;;4.60;;
5125;SDS011;63008;53.112;8.896;2023-07-13T00:24:13;10.87;;;5.30;;
5125;SDS011;63008;53.112;8.896;2023-07-13T00:26:19;5.90;;;4.90;;
5125;SDS011;63008;53.112;8.896;2023-07-13T00:28:20;17.97;;;5.40;;
5125;SDS011;63008;53.112;8.896;2023-07-13T00:30:21;6.00;;;5.50;;
5125;SDS011;63008;53.112;8.896;2023-07-13T00:32:22;5.33;;;4.83;;
5125;SDS011;63008;53.112;8.896;2023-07-13T00:34:23;7.90;;;5.03;;
5125;SDS011;63008;53.112;8.896;2023-07-13T00:36:24;7.50;;;4.87;;
5125;SDS011;63008;53.112;8.896;2023-07-13T00:38:25;8.10;;;5.10;;
5125;SDS011;63008;53.112;8.896;2023-07-13T00:40:26;5.30;;;4.80;;
5125;SDS011;63008;53.112;8.896;2023-07-13T00:42:27;7.47;;;5.40;;
5125;SDS011;63008;53.112;8.896;2023-07-13T00:44:29;6.00;;;5.20;;
5125;SDS011;63008;53.112;8.896;2023-07-13T00:46:31;7.93;;;4.87;;
5125;SDS011;63008;53.112;8.896;2023-07-13T00:48:34;8.57;;;4.70;;
5125;SDS011;63008;53.112;8.896;2023-07-13T00:50:37;5.03;;;4.53;;
5125;SDS011;63008;53.112;8.896;2023-07-13T00:52:40;8.40;;;4.40;;
5125;SDS011;63008;53.112;8.896;2023-07-13T00:54:44;8.57;;;5.40;;
5125;SDS011;63008;53.112;8.896;2023-07-13T00:56:47;6.67;;;4.83;;
5125;SDS011;63008;53.112;8.896;2023-07-13T00:58:50;5.93;;;5.17;;
5125;SDS011;63008;53.112;8.896;2023-07-13T01:00:51;9.40;;;4.60;;
5125;SDS011;63008;53.112;8.896;2023-07-13T01:02:52;7.70;;;5.33;;
5125;SDS011;63008;53.112;8.896;2023-07-13T01:04:53;7.47;;;4.77;;
5125;SDS011;63008;53.112;8.896;2023-07-13T01:06:54;7.80;;;4.77;;
5125;SDS011;63008;53.112;8.896;2023-07-13T01:08:57;7.73;;;4.53;;
5125;SDS011;63008;53.112;8.896;2023-07-13T01:10:59;7.10;;;4.57;;
5125;SDS011;63008;53.112;8.896;2023-07-13T01:13:00;8.27;;;5.37;;
5125;SDS011;63008;53.112;8.896;2023-07-13T01:15:01;5.20;;;4.80;;
5125;SDS011;63008;53.112;8.896;2023-07-13T01:17:03;8.33;;;5.17;;
5125;SDS011;63008;53.112;8.896;2023-07-13T01:19:07;6.90;;;5.20;;
5125;SDS011;63008;53.112;8.896;2023-07-13T01:21:36;7.00;;;4.77;;
5125;SDS011;63008;53.112;8.896;2023-07-13T01:23:41;9.50;;;5.03;;
5125;SDS011;63008;53.112;8.896;2023-07-13T01:25:44;6.93;;;5.20;;
5125;SDS011;63008;53.112;8.896;2023-07-13T01:27:46;12.80;;;6.47;;
5125;SDS011;63008;53.112;8.896;2023-07-13T01:29:47;6.83;;;6.03;;
5125;SDS011;63008;53.112;8.896;2023-07-13T01:31:48;6.60;;;5.30;;
5125;SDS011;63008;53.112;8.896;2023-07-13T01:33:49;12.30;;;5.73;;
5125;SDS011;63008;53.112;8.896;2023-07-13T01:35:50;11.80;;;5.43;;
5125;SDS011;63008;53.112;8.896;2023-07-13T01:37:51;10.83;;;5.40;;
5125;SDS011;63008;53.112;8.896;2023-07-13T01:39:52;9.40;;;5.10;;
5125;SDS011;63008;53.112;8.896;2023-07-13T01:41:54;10.83;;;5.73;;
5125;SDS011;63008;53.112;8.896;2023-07-13T01:43:54;6.20;;;5.60;;
5125;SDS011;63008;53.112;8.896;2023-07-13T01:45:55;8.90;;;5.50;;
5125;SDS011;63008;53.112;8.896;2023-07-13T01:47:56;5.47;;;4.83;;
5125;SDS011;63008;53.112;8.896;2023-07-13T01:49:58;10.40;;;5.70;;
5125;SDS011;63008;53.112;8.896;2023-07-13T01:51:59;7.87;;;5.83;;
5125;SDS011;63008;53.112;8.896;2023-07-13T01:54:00;8.10;;;5.37;;
5125;SDS011;63008;53.112;8.896;2023-07-13T01:56:01;14.90;;;6.00;;
5125;SDS011;63008;53.112;8.896;2023-07-13T01:58:02;7.57;;;5.43;;
5125;SDS011;63008;53.112;8.896;2023-07-13T02:00:04;8.13;;;6.17;;
5125;SDS011;63008;53.112;8.896;2023-07-13T02:02:07;6.40;;;5.67;;
5125;SDS011;63008;53.112;8.896;2023-07-13T02:04:08;8.50;;;6.30;;
5125;SDS011;63008;53.112;8.896;2023-07-13T02:06:09;12.20;;;5.90;;
5125;SDS011;63008;53.112;8.896;2023-07-13T02:08:10;10.73;;;6.60;;
5125;SDS011;63008;53.112;8.896;2023-07-13T02:10:11;9.13;;;6.93;;
5125;SDS011;63008;53.112;8.896;2023-07-13T02:12:12;11.80;;;6.67;;
5125;SDS011;63008;53.112;8.896;2023-07-13T02:14:13;11.40;;;6.50;;
5125;SDS011;63008;53.112;8.896;2023-07-13T02:16:15;8.50;;;6.80;;
5125;SDS011;63008;53.112;8.896;2023-07-13T02:18:17;7.60;;;6.10;;
5125;SDS011;63008;53.112;8.896;2023-07-13T02:20:18;7.83;;;6.50;;
5125;SDS011;63008;53.112;8.896;2023-07-13T02:22:19;11.20;;;6.30;;
5125;SDS011;63008;53.112;8.896;2023-07-13T02:24:20;10.60;;;5.53;;
5125;SDS011;63008;53.112;8.896;2023-07-13T02:26:21;8.47;;;6.33;;
5125;SDS011;63008;53.112;8.896;2023-07-13T02:28:22;10.00;;;5.77;;
5125;SDS011;63008;53.112;8.896;2023-07-13T02:30:23;11.30;;;6.10;;
5125;SDS011;63008;53.112;8.896;2023-07-13T02:32:25;20.03;;;6.03;;
5125;SDS011;63008;53.112;8.896;2023-07-13T02:34:26;10.97;;;6.70;;
5125;SDS011;63008;53.112;8.896;2023-07-13T02:36:27;6.17;;;5.67;;
5125;SDS011;63008;53.112;8.896;2023-07-13T02:38:28;8.50;;;5.23;;
5125;SDS011;63008;53.112;8.896;2023-07-13T02:40:29;6.50;;;5.30;;
5125;SDS011;63008;53.112;8.896;2023-07-13T02:42:30;7.70;;;6.00;;
5125;SDS011;63008;53.112;8.896;2023-07-13T02:44:31;16.47;;;6.87;;
5125;SDS011;63008;53.112;8.896;2023-07-13T02:46:32;12.57;;;6.90;;
5125;SDS011;63008;53.112;8.896;2023-07-13T02:48:35;9.17;;;6.53;;
5125;SDS011;63008;53.112;8.896;2023-07-13T02:50:37;13.00;;;7.10;;
5125;SDS011;63008;53.112;8.896;2023-07-13T02:52:38;9.70;;;5.93;;
5125;SDS011;63008;53.112;8.896;2023-07-13T02:54:39;12.43;;;6.77;;
5125;SDS011;63008;53.112;8.896;2023-07-13T02:56:40;11.73;;;6.40;;
5125;SDS011;63008;53.112;8.896;2023-07-13T02:58:42;18.70;;;7.20;;
5125;SDS011;63008;53.112;8.896;2023-07-13T03:00:43;9.27;;;6.17;;
5125;SDS011;63008;53.112;8.896;2023-07-13T03:02:46;8.60;;;5.83;;
5125;SDS011;63008;53.112;8.896;2023-07-13T03:04:47;16.83;;;8.03;;
5125;SDS011;63008;53.112;8.896;2023-07-13T03:06:48;12.17;;;6.37;;
5125;SDS011;63008;53.112;8.896;2023-07-13T03:08:49;16.03;;;6.40;;
5125;SDS011;63008;53.112;8.896;2023-07-13T03:13:24;13.03;;;5.80;;
5125;SDS011;63008;53.112;8.896;2023-07-13T03:15:25;12.33;;;5.80;;
5125;SDS011;63008;53.112;8.896;2023-07-13T03:17:27;12.40;;;5.87;;
5125;SDS011;63008;53.112;8.896;2023-07-13T03:19:28;10.20;;;5.30;;
5125;SDS011;63008;53.112;8.896;2023-07-13T03:21:29;14.90;;;6.43;;
5125;SDS011;63008;53.112;8.896;2023-07-13T03:23:30;10.50;;;5.13;;
5125;SDS011;63008;53.112;8.896;2023-07-13T03:25:31;13.33;;;4.73;;
5125;SDS011;63008;53.112;8.896;2023-07-13T03:27:32;13.40;;;5.30;;
5125;SDS011;63008;53.112;8.896;2023-07-13T03:29:33;16.43;;;4.90;;
5125;SDS011;63008;53.112;8.896;2023-07-13T03:31:36;8.77;;;4.80;;
5125;SDS011;63008;53.112;8.896;2023-07-13T03:33:37;8.93;;;4.90;;
5125;SDS011;63008;53.112;8.896;2023-07-13T03:35:40;7.50;;;3.93;;
5125;SDS011;63008;53.112;8.896;2023-07-13T03:37:41;14.50;;;4.57;;
5125;SDS011;63008;53.112;8.896;2023-07-13T03:39:43;14.03;;;5.03;;
5125;SDS011;63008;53.112;8.896;2023-07-13T03:41:43;8.40;;;4.17;;
5125;SDS011;63008;53.112;8.896;2023-07-13T03:43:44;10.50;;;4.47;;
5125;SDS011;63008;53.112;8.896;2023-07-13T03:45:46;11.40;;;4.07;;
5125;SDS011;63008;53.112;8.896;2023-07-13T03:47:47;7.23;;;4.00;;
5125;SDS011;63008;53.112;8.896;2023-07-13T03:49:48;10.67;;;4.20;;
5125;SDS011;63008;53.112;8.896;2023-07-13T03:51:49;9.97;;;3.70;;
5125;SDS011;63008;53.112;8.896;2023-07-13T03:53:50;18.73;;;4.67;;
5125;SDS011;63008;53.112;8.896;2023-07-13T03:55:51;16.00;;;3.67;;
5125;SDS011;63008;53.112;8.896;2023-07-13T03:57:54;14.47;;;4.33;;
5125;SDS011;63008;53.112;8.896;2023-07-13T03:59:59;19.10;;;4.30;;
5125;SDS011;63008;53.112;8.896;2023-07-13T04:02:00;17.03;;;3.50;;
5125;SDS011;63008;53.112;8.896;2023-07-13T04:04:02;12.40;;;4.00;;
5125;SDS011;63008;53.112;8.896;2023-07-13T04:06:04;10.67;;;4.20;;
5125;SDS011;63008;53.112;8.896;2023-07-13T04:08:07;10.33;;;3.77;;
5125;SDS011;63008;53.112;8.896;2023-07-13T04:10:08;11.20;;;3.20;;
5125;SDS011;63008;53.112;8.896;2023-07-13T04:12:09;28.50;;;6.80;;
5125;SDS011;63008;53.112;8.896;2023-07-13T04:14:10;12.00;;;4.33;;
5125;SDS011;63008;53.112;8.896;2023-07-13T04:16:12;16.07;;;3.37;;
5125;SDS011;63008;53.112;8.896;2023-07-13T04:18:13;14.40;;;4.10;;
5125;SDS011;63008;53.112;8.896;2023-07-13T04:20:14;16.93;;;4.20;;
5125;SDS011;63008;53.112;8.896;2023-07-13T04:22:15;12.13;;;3.47;;
5125;SDS011;63008;53.112;8.896;2023-07-13T04:24:16;14.57;;;3.90;;
5125;SDS011;63008;53.112;8.896;2023-07-13T04:26:17;10.80;;;3.47;;
5125;SDS011;63008;53.112;8.896;2023-07-13T04:28:22;11.67;;;3.27;;
5125;SDS011;63008;53.112;8.896;2023-07-13T04:30:24;12.27;;;3.00;;
5125;SDS011;63008;53.112;8.896;2023-07-13T04:32:25;6.73;;;2.27;;
5125;SDS011;63008;53.112;8.896;2023-07-13T04:34:26;11.73;;;3.17;;
5125;SDS011;63008;53.112;8.896;2023-07-13T04:36:27;10.70;;;2.93;;
5125;SDS011;63008;53.112;8.896;2023-07-13T04:38:29;9.63;;;3.33;;
5125;SDS011;63008;53.112;8.896;2023-07-13T04:40:32;9.63;;;3.00;;
5125;SDS011;63008;53.112;8.896;2023-07-13T04:42:33;13.47;;;3.73;;
5125;SDS011;63008;53.112;8.896;2023-07-13T04:44:35;6.90;;;2.97;;
5125;SDS011;63008;53.112;8.896;2023-07-13T04:46:38;7.83;;;2.90;;
5125;SDS011;63008;53.112;8.896;2023-07-13T04:48:39;13.80;;;3.50;;
5125;SDS011;63008;53.112;8.896;2023-07-13T04:50:40;9.40;;;2.80;;
5125;SDS011;63008;53.112;8.896;2023-07-13T04:52:44;11.17;;;2.80;;
5125;SDS011;63008;53.112;8.896;2023-07-13T04:54:45;13.00;;;3.40;;
5125;SDS011;63008;53.112;8.896;2023-07-13T04:56:46;15.50;;;3.10;;
5125;SDS011;63008;53.112;8.896;2023-07-13T04:58:47;7.27;;;3.00;;
5125;SDS011;63008;53.112;8.896;2023-07-13T05:00:48;16.10;;;3.40;;
5125;SDS011;63008;53.112;8.896;2023-07-13T05:02:49;12.60;;;2.90;;
5125;SDS011;63008;53.112;8.896;2023-07-13T05:04:50;12.00;;;2.97;;
5125;SDS011;63008;53.112;8.896;2023-07-13T05:06:51;15.87;;;3.27;;
5125;SDS011;63008;53.112;8.896;2023-07-13T05:08:52;8.97;;;3.17;;
5125;SDS011;63008;53.112;8.896;2023-07-13T05:10:53;11.47;;;3.50;;
5125;SDS011;63008;53.112;8.896;2023-07-13T05:12:55;16.47;;;3.00;;
5125;SDS011;63008;53.112;8.896;2023-07-13T05:14:56;9.63;;;3.03;;
5125;SDS011;63008;53.112;8.896;2023-07-13T05:16:57;12.87;;;2.97;;
5125;SDS011;63008;53.112;8.896;2023-07-13T05:18:58;7.80;;;2.90;;
5125;SDS011;63008;53.112;8.896;2023-07-13T05:21:00;7.93;;;2.70;;
5125;SDS011;63008;53.112;8.896;2023-07-13T05:23:03;23.43;;;3.40;;
5125;SDS011;63008;53.112;8.896;2023-07-13T05:25:05;9.10;;;2.53;;
5125;SDS011;63008;53.112;8.896;2023-07-13T05:27:07;13.73;;;2.90;;
5125;SDS011;63008;53.112;8.896;2023-07-13T05:29:08;20.80;;;3.90;;
5125;SDS011;63008;53.112;8.896;2023-07-13T05:31:09;11.33;;;3.10;;
5125;SDS011;63008;53.112;8.896;2023-07-13T05:33:10;14.40;;;3.23;;
5125;SDS011;63008;53.112;8.896;2023-07-13T05:35:11;14.83;;;3.37;;
5125;SDS011;63008;53.112;8.896;2023-07-13T05:37:12;9.63;;;2.73;;
5125;SDS011;63008;53.112;8.896;2023-07-13T05:39:13;15.10;;;3.03;;
5125;SDS011;63008;53.112;8.896;2023-07-13T05:41:14;12.93;;;3.17;;
5125;SDS011;63008;53.112;8.896;2023-07-13T05:43:15;25.03;;;3.70;;
5125;SDS011;63008;53.112;8.896;2023-07-13T05:45:16;11.70;;;3.67;;
5125;SDS011;63008;53.112;8.896;2023-07-13T05:47:17;6.73;;;3.03;;
5125;SDS011;63008;53.112;8.896;2023-07-13T05:49:18;10.40;;;3.10;;
5125;SDS011;63008;53.112;8.896;2023-07-13T05:51:19;12.17;;;2.80;;
5125;SDS011;63008;53.112;8.896;2023-07-13T05:53:20;15.93;;;3.80;;
5125;SDS011;63008;53.112;8.896;2023-07-13T05:55:21;10.57;;;2.83;;
5125;SDS011;63008;53.112;8.896;2023-07-13T05:57:22;15.53;;;3.50;;
5125;SDS011;63008;53.112;8.896;2023-07-13T05:59:23;13.50;;;3.70;;
5125;SDS011;63008;53.112;8.896;2023-07-13T06:01:25;9.20;;;3.50;;
5125;SDS011;63008;53.112;8.896;2023-07-13T06:03:26;13.97;;;3.60;;
5125;SDS011;63008;53.112;8.896;2023-07-13T06:05:27;11.73;;;3.90;;
5125;SDS011;63008;53.112;8.896;2023-07-13T06:07:29;14.63;;;3.77;;
5125;SDS011;63008;53.112;8.896;2023-07-13T06:09:30;7.03;;;2.93;;
5125;SDS011;63008;53.112;8.896;2023-07-13T06:11:31;10.60;;;3.83;;
5125;SDS011;63008;53.112;8.896;2023-07-13T06:13:32;10.17;;;3.00;;
5125;SDS011;63008;53.112;8.896;2023-07-13T06:15:33;11.60;;;4.17;;
5125;SDS011;63008;53.112;8.896;2023-07-13T06:17:34;13.70;;;3.07;;
5125;SDS011;63008;53.112;8.896;2023-07-13T06:19:35;13.07;;;3.70;;
5125;SDS011;63008;53.112;8.896;2023-07-13T06:21:36;12.20;;;3.20;;
5125;SDS011;63008;53.112;8.896;2023-07-13T06:23:37;11.47;;;3.30;;
5125;SDS011;63008;53.112;8.896;2023-07-13T06:25:39;18.73;;;4.17;;
5125;SDS011;63008;53.112;8.896;2023-07-13T06:27:40;12.63;;;3.40;;
5125;SDS011;63008;53.112;8.896;2023-07-13T06:29:41;13.43;;;4.20;;
5125;SDS011;63008;53.112;8.896;2023-07-13T06:31:45;8.70;;;3.43;;
5125;SDS011;63008;53.112;8.896;2023-07-13T06:33:46;18.63;;;4.57;;
5125;SDS011;63008;53.112;8.896;2023-07-13T06:35:47;11.87;;;4.23;;
5125;SDS011;63008;53.112;8.896;2023-07-13T06:37:48;12.13;;;3.37;;
5125;SDS011;63008;53.112;8.896;2023-07-13T06:39:49;13.47;;;3.90;;
5125;SDS011;63008;53.112;8.896;2023-07-13T06:41:50;16.03;;;4.87;;
5125;SDS011;63008;53.112;8.896;2023-07-13T06:43:51;13.63;;;3.70;;
5125;SDS011;63008;53.112;8.896;2023-07-13T06:45:54;13.83;;;3.87;;
5125;SDS011;63008;53.112;8.896;2023-07-13T06:47:56;14.53;;;3.93;;
5125;SDS011;63008;53.112;8.896;2023-07-13T06:49:57;22.10;;;3.20;;
5125;SDS011;63008;53.112;8.896;2023-07-13T06:51:58;7.83;;;3.90;;
5125;SDS011;63008;53.112;8.896;2023-07-13T06:53:59;11.97;;;3.47;;
5125;SDS011;63008;53.112;8.896;2023-07-13T06:56:00;18.03;;;3.00;;
5125;SDS011;63008;53.112;8.896;2023-07-13T06:58:01;16.33;;;3.77;;
5125;SDS011;63008;53.112;8.896;2023-07-13T07:00:02;7.70;;;3.53;;
5125;SDS011;63008;53.112;8.896;2023-07-13T07:02:03;17.30;;;3.70;;
5125;SDS011;63008;53.112;8.896;2023-07-13T07:04:04;13.77;;;3.80;;
5125;SDS011;63008;53.112;8.896;2023-07-13T07:06:08;14.33;;;3.57;;
5125;SDS011;63008;53.112;8.896;2023-07-13T07:08:14;13.77;;;3.47;;
5125;SDS011;63008;53.112;8.896;2023-07-13T07:10:15;14.97;;;4.23;;
5125;SDS011;63008;53.112;8.896;2023-07-13T07:12:16;10.00;;;3.83;;
5125;SDS011;63008;53.112;8.896;2023-07-13T07:14:17;12.00;;;3.63;;
5125;SDS011;63008;53.112;8.896;2023-07-13T07:16:18;11.63;;;4.33;;
5125;SDS011;63008;53.112;8.896;2023-07-13T07:18:20;17.53;;;3.93;;
5125;SDS011;63008;53.112;8.896;2023-07-13T07:20:21;19.13;;;3.90;;
5125;SDS011;63008;53.112;8.896;2023-07-13T07:22:22;8.17;;;3.73;;
5125;SDS011;63008;53.112;8.896;2023-07-13T07:24:23;8.10;;;3.17;;
5125;SDS011;63008;53.112;8.896;2023-07-13T07:26:24;11.30;;;3.47;;
5125;SDS011;63008;53.112;8.896;2023-07-13T07:28:25;12.93;;;3.57;;
5125;SDS011;63008;53.112;8.896;2023-07-13T07:30:26;12.90;;;3.77;;
5125;SDS011;63008;53.112;8.896;2023-07-13T07:32:28;9.67;;;3.47;;
5125;SDS011;63008;53.112;8.896;2023-07-13T07:34:30;17.17;;;3.90;;
5125;SDS011;63008;53.112;8.896;2023-07-13T07:36:31;13.27;;;3.17;;
5125;SDS011;63008;53.112;8.896;2023-07-13T07:38:32;12.67;;;3.20;;
5125;SDS011;63008;53.112;8.896;2023-07-13T07:40:36;11.70;;;3.20;;
5125;SDS011;63008;53.112;8.896;2023-07-13T07:42:38;16.47;;;4.33;;
5125;SDS011;63008;53.112;8.896;2023-07-13T07:44:40;13.90;;;3.93;;
5125;SDS011;63008;53.112;8.896;2023-07-13T07:46:41;10.50;;;4.03;;
5125;SDS011;63008;53.112;8.896;2023-07-13T07:48:42;9.73;;;3.40;;
5125;SDS011;63008;53.112;8.896;2023-07-13T07:50:43;7.40;;;2.63;;
5125;SDS011;63008;53.112;8.896;2023-07-13T07:52:44;9.30;;;3.30;;
5125;SDS011;63008;53.112;8.896;2023-07-13T07:54:45;8.63;;;3.60;;
5125;SDS011;63008;53.112;8.896;2023-07-13T07:56:46;11.70;;;3.13;;
5125;SDS011;63008;53.112;8.896;2023-07-13T07:58:47;11.27;;;3.60;;
5125;SDS011;63008;53.112;8.896;2023-07-13T08:00:48;12.30;;;3.20;;
5125;SDS011;63008;53.112;8.896;2023-07-13T08:02:49;11.13;;;2.90;;
5125;SDS011;63008;53.112;8.896;2023-07-13T08:04:50;12.90;;;3.93;;
5125;SDS011;63008;53.112;8.896;2023-07-13T08:06:51;12.80;;;3.47;;
5125;SDS011;63008;53.112;8.896;2023-07-13T08:08:52;6.93;;;3.03;;
5125;SDS011;63008;53.112;8.896;2023-07-13T08:10:53;9.67;;;2.57;;
5125;SDS011;63008;53.112;8.896;2023-07-13T08:12:54;15.43;;;3.53;;
5125;SDS011;63008;53.112;8.896;2023-07-13T08:14:55;8.00;;;3.30;;
5125;SDS011;63008;53.112;8.896;2023-07-13T08:16:58;7.57;;;3.10;;
5125;SDS011;63008;53.112;8.896;2023-07-13T08:18:59;10.40;;;2.93;;
5125;SDS011;63008;53.112;8.896;2023-07-13T08:21:04;9.07;;;2.97;;
5125;SDS011;63008;53.112;8.896;2023-07-13T08:23:09;10.47;;;3.37;;
5125;SDS011;63008;53.112;8.896;2023-07-13T08:25:10;9.90;;;3.23;;
5125;SDS011;63008;53.112;8.896;2023-07-13T08:27:11;10.27;;;3.43;;
5125;SDS011;63008;53.112;8.896;2023-07-13T08:29:13;14.73;;;3.40;;
5125;SDS011;63008;53.112;8.896;2023-07-13T08:31:13;10.80;;;3.20;;
5125;SDS011;63008;53.112;8.896;2023-07-13T08:33:16;9.43;;;3.30;;
5125;SDS011;63008;53.112;8.896;2023-07-13T08:35:20;6.00;;;2.77;;
5125;SDS011;63008;53.112;8.896;2023-07-13T08:37:21;9.30;;;3.33;;
5125;SDS011;63008;53.112;8.896;2023-07-13T08:39:22;7.67;;;3.13;;
5125;SDS011;63008;53.112;8.896;2023-07-13T08:41:23;5.37;;;2.80;;
5125;SDS011;63008;53.112;8.896;2023-07-13T08:43:33;7.73;;;3.10;;
5125;SDS011;63008;53.112;8.896;2023-07-13T08:45:38;8.60;;;2.73;;
5125;SDS011;63008;53.112;8.896;2023-07-13T08:47:47;12.87;;;3.40;;
5125;SDS011;63008;53.112;8.896;2023-07-13T08:49:54;10.60;;;3.40;;
5125;SDS011;63008;53.112;8.896;2023-07-13T08:51:59;5.57;;;2.77;;
5125;SDS011;63008;53.112;8.896;2023-07-13T08:54:08;8.80;;;3.10;;
5125;SDS011;63008;53.112;8.896;2023-07-13T08:56:24;9.57;;;2.93;;
5125;SDS011;63008;53.112;8.896;2023-07-13T08:58:28;8.63;;;2.90;;
5125;SDS011;63008;53.112;8.896;2023-07-13T09:00:50;5.83;;;2.83;;
5125;SDS011;63008;53.112;8.896;2023-07-13T09:02:59;7.43;;;3.17;;
5125;SDS011;63008;53.112;8.896;2023-07-13T09:05:22;8.90;;;2.73;;
5125;SDS011;63008;53.112;8.896;2023-07-13T09:12:19;12.97;;;3.00;;
5125;SDS011;63008;53.112;8.896;2023-07-13T09:14:37;8.07;;;2.97;;
5125;SDS011;63008;53.112;8.896;2023-07-13T09:16:52;8.83;;;2.43;;
5125;SDS011;63008;53.112;8.896;2023-07-13T09:18:56;5.37;;;2.70;;
5125;SDS011;63008;53.112;8.896;2023-07-13T09:21:12;5.53;;;2.10;;
5125;SDS011;63008;53.112;8.896;2023-07-13T09:23:20;4.90;;;2.80;;
5125;SDS011;63008;53.112;8.896;2023-07-13T09:25:29;5.53;;;2.57;;
5125;SDS011;63008;53.112;8.896;2023-07-13T09:27:36;13.83;;;3.43;;
5125;SDS011;63008;53.112;8.896;2023-07-13T09:29:50;5.83;;;3.30;;
5125;SDS011;63008;53.112;8.896;2023-07-13T09:32:04;10.63;;;2.83;;
5125;SDS011;63008;53.112;8.896;2023-07-13T09:34:10;6.07;;;2.37;;
5125;SDS011;63008;53.112;8.896;2023-07-13T09:36:22;7.83;;;2.47;;
5125;SDS011;63008;53.112;8.896;2023-07-13T09:38:27;11.57;;;3.63;;
5125;SDS011;63008;53.112;8.896;2023-07-13T09:40:34;5.07;;;2.20;;
5125;SDS011;63008;53.112;8.896;2023-07-13T09:42:41;3.43;;;2.17;;
5125;SDS011;63008;53.112;8.896;2023-07-13T09:44:56;6.07;;;2.20;;
5125;SDS011;63008;53.112;8.896;2023-07-13T09:46:59;5.97;;;2.43;;
5125;SDS011;63008;53.112;8.896;2023-07-13T09:49:00;5.43;;;2.30;;
5125;SDS011;63008;53.112;8.896;2023-07-13T09:51:13;8.33;;;2.07;;
5125;SDS011;63008;53.112;8.896;2023-07-13T09:53:19;4.70;;;2.37;;
5125;SDS011;63008;53.112;8.896;2023-07-13T09:57:35;6.77;;;2.57;;
5125;SDS011;63008;53.112;8.896;2023-07-13T09:59:39;4.60;;;1.90;;
5125;SDS011;63008;53.112;8.896;2023-07-13T10:01:42;9.33;;;2.00;;
5125;SDS011;63008;53.112;8.896;2023-07-13T10:03:51;4.07;;;2.10;;
5125;SDS011;63008;53.112;8.896;2023-07-13T10:05:54;6.33;;;2.17;;
5125;SDS011;63008;53.112;8.896;2023-07-13T10:07:55;5.80;;;2.20;;
5125;SDS011;63008;53.112;8.896;2023-07-13T10:09:57;8.93;;;2.47;;
5125;SDS011;63008;53.112;8.896;2023-07-13T10:12:04;4.30;;;1.90;;
5125;SDS011;63008;53.112;8.896;2023-07-13T10:14:14;5.27;;;2.13;;
5125;SDS011;63008;53.112;8.896;2023-07-13T10:16:17;3.30;;;1.77;;
5125;SDS011;63008;53.112;8.896;2023-07-13T10:18:19;6.73;;;1.80;;
5125;SDS011;63008;53.112;8.896;2023-07-13T10:20:21;2.77;;;2.00;;
5125;SDS011;63008;53.112;8.896;2023-07-13T10:22:42;7.50;;;1.83;;
5125;SDS011;63008;53.112;8.896;2023-07-13T10:24:50;7.10;;;2.70;;
5125;SDS011;63008;53.112;8.896;2023-07-13T10:29:07;2.70;;;1.83;;
5125;SDS011;63008;53.112;8.896;2023-07-13T10:31:12;2.50;;;1.90;;
5125;SDS011;63008;53.112;8.896;2023-07-13T10:33:16;4.77;;;2.00;;
5125;SDS011;63008;53.112;8.896;2023-07-13T10:35:17;5.90;;;2.40;;
5125;SDS011;63008;53.112;8.896;2023-07-13T10:37:21;8.13;;;2.33;;
5125;SDS011;63008;53.112;8.896;2023-07-13T10:39:26;6.53;;;2.03;;
5125;SDS011;63008;53.112;8.896;2023-07-13T10:41:29;7.40;;;2.50;;
5125;SDS011;63008;53.112;8.896;2023-07-13T10:43:39;4.50;;;1.80;;
5125;SDS011;63008;53.112;8.896;2023-07-13T10:45:45;9.10;;;2.73;;
5125;SDS011;63008;53.112;8.896;2023-07-13T10:47:51;8.37;;;2.60;;
5125;SDS011;63008;53.112;8.896;2023-07-13T10:49:56;4.80;;;2.00;;
5125;SDS011;63008;53.112;8.896;2023-07-13T10:52:00;4.53;;;2.10;;
5125;SDS011;63008;53.112;8.896;2023-07-13T10:54:21;8.40;;;2.93;;
5125;SDS011;63008;53.112;8.896;2023-07-13T10:56:28;9.40;;;3.43;;
5125;SDS011;63008;53.112;8.896;2023-07-13T11:00:44;8.30;;;3.47;;
5125;SDS011;63008;53.112;8.896;2023-07-13T11:02:58;9.63;;;2.87;;
5125;SDS011;63008;53.112;8.896;2023-07-13T11:05:13;4.13;;;1.83;;
5125;SDS011;63008;53.112;8.896;2023-07-13T11:07:30;1.77;;;1.67;;
5125;SDS011;63008;53.112;8.896;2023-07-13T11:11:41;2.20;;;1.23;;
5125;SDS011;63008;53.112;8.896;2023-07-13T11:15:47;5.60;;;1.87;;
5125;SDS011;63008;53.112;8.896;2023-07-13T11:17:50;3.53;;;2.00;;
5125;SDS011;63008;53.112;8.896;2023-07-13T11:22:13;4.73;;;2.53;;
5125;SDS011;63008;53.112;8.896;2023-07-13T11:24:16;3.50;;;2.00;;
5125;SDS011;63008;53.112;8.896;2023-07-13T11:28:51;3.03;;;1.97;;
5125;SDS011;63008;53.112;8.896;2023-07-13T11:33:03;3.00;;;2.13;;
5125;SDS011;63008;53.112;8.896;2023-07-13T11:35:12;3.10;;;2.03;;
5125;SDS011;63008;53.112;8.896;2023-07-13T11:37:18;2.70;;;1.80;;
5125;SDS011;63008;53.112;8.896;2023-07-13T11:39:21;3.77;;;2.20;;
5125;SDS011;63008;53.112;8.896;2023-07-13T11:41:37;9.13;;;2.50;;
5125;SDS011;63008;53.112;8.896;2023-07-13T11:43:46;2.63;;;1.73;;
5125;SDS011;63008;53.112;8.896;2023-07-13T11:45:50;2.90;;;1.93;;
5125;SDS011;63008;53.112;8.896;2023-07-13T11:47:51;3.57;;;1.90;;
5125;SDS011;63008;53.112;8.896;2023-07-13T11:49:53;5.13;;;2.10;;
5125;SDS011;63008;53.112;8.896;2023-07-13T11:52:00;2.80;;;1.53;;
5125;SDS011;63008;53.112;8.896;2023-07-13T11:54:10;2.00;;;1.40;;
5125;SDS011;63008;53.112;8.896;2023-07-13T11:56:20;2.83;;;0.97;;
5125;SDS011;63008;53.112;8.896;2023-07-13T11:58:22;3.57;;;1.67;;
5125;SDS011;63008;53.112;8.896;2023-07-13T12:00:28;6.97;;;1.60;;
5125;SDS011;63008;53.112;8.896;2023-07-13T12:02:32;1.63;;;1.30;;
5125;SDS011;63008;53.112;8.896;2023-07-13T12:04:36;1.77;;;1.20;;
5125;SDS011;63008;53.112;8.896;2023-07-13T12:06:39;1.60;;;1.53;;
5125;SDS011;63008;53.112;8.896;2023-07-13T12:08:42;2.10;;;1.60;;
5125;SDS011;63008;53.112;8.896;2023-07-13T12:10:43;1.10;;;1.10;;
5125;SDS011;63008;53.112;8.896;2023-07-13T12:15:21;1.57;;;1.30;;
5125;SDS011;63008;53.112;8.896;2023-07-13T12:17:24;1.60;;;1.10;;
5125;SDS011;63008;53.112;8.896;2023-07-13T12:19:27;2.63;;;1.47;;
5125;SDS011;63008;53.112;8.896;2023-07-13T12:21:31;2.20;;;1.47;;
5125;SDS011;63008;53.112;8.896;2023-07-13T12:23:42;2.30;;;1.37;;
5125;SDS011;63008;53.112;8.896;2023-07-13T12:25:44;1.50;;;1.40;;
5125;SDS011;63008;53.112;8.896;2023-07-13T12:27:46;4.03;;;2.00;;
5125;SDS011;63008;53.112;8.896;2023-07-13T12:30:01;13.37;;;1.83;;
5125;SDS011;63008;53.112;8.896;2023-07-13T12:32:08;2.60;;;2.03;;
5125;SDS011;63008;53.112;8.896;2023-07-13T12:34:11;5.87;;;1.93;;
5125;SDS011;63008;53.112;8.896;2023-07-13T12:36:15;2.77;;;1.80;;
5125;SDS011;63008;53.112;8.896;2023-07-13T12:38:16;3.00;;;1.67;;
5125;SDS011;63008;53.112;8.896;2023-07-13T12:40:21;2.30;;;2.10;;
5125;SDS011;63008;53.112;8.896;2023-07-13T12:42:28;4.20;;;2.40;;
5125;SDS011;63008;53.112;8.896;2023-07-13T12:44:32;3.17;;;1.97;;
5125;SDS011;63008;53.112;8.896;2023-07-13T12:46:33;1.90;;;1.73;;
5125;SDS011;63008;53.112;8.896;2023-07-13T12:48:40;1.70;;;1.60;;
5125;SDS011;63008;53.112;8.896;2023-07-13T12:50:45;3.17;;;1.47;;
5125;SDS011;63008;53.112;8.896;2023-07-13T12:52:51;2.50;;;1.60;;
5125;SDS011;63008;53.112;8.896;2023-07-13T12:54:55;2.40;;;1.97;;
5125;SDS011;63008;53.112;8.896;2023-07-13T12:56:58;5.23;;;1.97;;